Dong Fang You 2 — BXEC — position and weather

sailwx.info

Track history (hours):
 
Tides and Currents Weather Stations Pressure Air Temp Water Temp Dewpoint Dewpoint Depression Visibility Wind Speed Wind Dir Waves Ship Positions

Dong Fang You 2

Last reported at 2014-Dec-18 20:12 UTC. Time now 2014-Dec-19 02:19 UTC.
Position N 22°01' E 113°35'.

Length 82 m; draft 4.5 m.

MMSI: 412464680.

Date/timePositionNaut miles runAvg speedWind from/ knotsBaromVisibWave heightAir tempDewpointWater temp
2014-Dec-18 20:12N 22°01' E 113°35'710.3
2014-Dec-18 19:32N 22°07' E 113°40'9 9.4
2014-Dec-18 18:33N 22°14' E 113°46'40 9.8
2014-Dec-18 14:30N 22°52' E 113°34'4 3.8
2014-Dec-18 13:26N 22°56' E 113°34'0 0.0
2014-Dec-18 11:14N 22°56' E 113°34'0 0.0
2014-Dec-18 10:26N 22°56' E 113°34'0 0.0
2014-Dec-18 09:30N 22°56' E 113°34'0 0.0
2014-Dec-18 08:30N 22°56' E 113°34'0 0.0
2014-Dec-18 07:33N 22°56' E 113°34'0 0.0
2014-Dec-18 06:33N 22°56' E 113°34'0 0.0
2014-Dec-18 05:33N 22°56' E 113°34'0 0.0
2014-Dec-18 04:33N 22°56' E 113°34'0 0.0
2014-Dec-18 03:33N 22°56' E 113°34'31 1.4
2014-Dec-17 05:23N 22°27' E 113°45'8 9.8
2014-Dec-17 04:33N 22°19' E 113°48'8 8.4
2014-Dec-17 03:33N 22°12' E 113°43'8 7.8
2014-Dec-17 02:31N 22°05' E 113°39'6 5.6
2014-Dec-17 01:32N 22°01' E 113°35'21 6.9
2014-Dec-16 22:33N 21°51' E 113°15'7 7.2
2014-Dec-16 21:33N 21°49' E 113°08'  
Track history (hours):
 
Tides and Currents Weather Stations Pressure Air Temp Water Temp Dewpoint Dewpoint Depression Visibility Wind Speed Wind Dir Waves Ship Positions

Dong Fang You 2

Last reported at 2014-Dec-18 20:12 UTC. Time now 2014-Dec-19 02:19 UTC.
Position N 22°01' E 113°35'.

Length 82 m; draft 4.5 m.

MMSI: 412464680.

Date/timePositionNaut miles runAvg speedWind from/ knotsBaromVisibWave heightAir tempDewpointWater temp
2014-Dec-18 20:12N 22°01' E 113°35'710.3
2014-Dec-18 19:32N 22°07' E 113°40'9 9.4
2014-Dec-18 18:33N 22°14' E 113°46'40 9.8
2014-Dec-18 14:30N 22°52' E 113°34'4 3.8
2014-Dec-18 13:26N 22°56' E 113°34'0 0.0
2014-Dec-18 11:14N 22°56' E 113°34'0 0.0
2014-Dec-18 10:26N 22°56' E 113°34'0 0.0
2014-Dec-18 09:30N 22°56' E 113°34'0 0.0
2014-Dec-18 08:30N 22°56' E 113°34'0 0.0
2014-Dec-18 07:33N 22°56' E 113°34'0 0.0
2014-Dec-18 06:33N 22°56' E 113°34'0 0.0
2014-Dec-18 05:33N 22°56' E 113°34'0 0.0
2014-Dec-18 04:33N 22°56' E 113°34'0 0.0
2014-Dec-18 03:33N 22°56' E 113°34'31 1.4
2014-Dec-17 05:23N 22°27' E 113°45'8 9.8
2014-Dec-17 04:33N 22°19' E 113°48'8 8.4
2014-Dec-17 03:33N 22°12' E 113°43'8 7.8
2014-Dec-17 02:31N 22°05' E 113°39'6 5.6
2014-Dec-17 01:32N 22°01' E 113°35'21 6.9
2014-Dec-16 22:33N 21°51' E 113°15'7 7.2
2014-Dec-16 21:33N 21°49' E 113°08'  

Dump ship's entire track history